createdAt,value
2023-05-10T00:02:31.087Z,3.55
2023-05-10T00:05:03.179Z,4.25
2023-05-10T00:07:31.426Z,3.88
2023-05-10T00:10:03.136Z,3.28
2023-05-10T00:12:42.051Z,3.83
2023-05-10T00:15:16.562Z,3.83
2023-05-10T00:17:47.372Z,3.45
2023-05-10T00:20:21.400Z,2.80
2023-05-10T00:22:50.367Z,3.65
2023-05-10T00:25:23.669Z,7.00
2023-05-10T00:27:51.195Z,15.68
2023-05-10T00:30:21.033Z,6.95
2023-05-10T00:32:49.758Z,3.47
2023-05-10T00:35:23.645Z,2.78
2023-05-10T00:37:55.614Z,3.03
2023-05-10T00:40:41.519Z,2.58
2023-05-10T00:43:19.158Z,2.90
2023-05-10T00:45:53.125Z,2.90
2023-05-10T00:48:24.338Z,2.90
2023-05-10T00:51:05.535Z,2.70
2023-05-10T00:53:38.683Z,2.97
2023-05-10T00:56:14.070Z,2.95
2023-05-10T00:58:47.312Z,3.30
2023-05-10T01:01:15.329Z,3.20
2023-05-10T01:03:46.989Z,2.53
2023-05-10T01:06:20.913Z,3.20
2023-05-10T01:09:00.504Z,2.70
2023-05-10T01:11:30.700Z,3.30
2023-05-10T01:14:03.130Z,3.38
2023-05-10T01:16:41.878Z,3.20
2023-05-10T01:19:22.348Z,3.55
2023-05-10T01:22:08.314Z,3.25
2023-05-10T01:25:15.333Z,3.17
2023-05-10T01:28:07.641Z,2.97
2023-05-10T01:30:57.439Z,3.15
2023-05-10T01:33:38.094Z,3.05
2023-05-10T01:36:46.682Z,2.90
2023-05-10T01:39:27.811Z,2.70
2023-05-10T01:42:12.453Z,3.17
2023-05-10T01:44:47.526Z,2.78
2023-05-10T01:47:30.544Z,3.17
2023-05-10T01:50:05.427Z,2.38
2023-05-10T01:52:39.843Z,3.10
2023-05-10T01:55:14.798Z,2.92
2023-05-10T01:57:54.086Z,3.00
2023-05-10T02:00:24.841Z,2.88
2023-05-10T02:02:57.542Z,2.63
2023-05-10T02:05:37.661Z,2.75
2023-05-10T02:08:10.457Z,3.22
2023-05-10T02:10:42.053Z,3.33
2023-05-10T02:13:14.728Z,2.90
2023-05-10T02:15:49.138Z,3.58
2023-05-10T02:18:18.404Z,3.13
2023-05-10T02:21:01.894Z,3.63
2023-05-10T02:23:33.696Z,3.20
2023-05-10T02:26:04.922Z,3.10
2023-05-10T02:28:36.661Z,3.03
2023-05-10T02:31:15.210Z,2.70
2023-05-10T02:33:46.741Z,3.17
2023-05-10T02:36:20.670Z,3.05
2023-05-10T02:38:54.103Z,3.05
2023-05-10T02:41:38.909Z,2.88
2023-05-10T02:44:12.173Z,3.00
2023-05-10T02:46:42.736Z,2.95
2023-05-10T02:49:15.733Z,2.70
2023-05-10T02:51:55.524Z,2.90
2023-05-10T02:54:33.308Z,3.05
2023-05-10T02:57:04.963Z,2.90
2023-05-10T02:59:43.902Z,3.25
2023-05-10T03:02:23.670Z,3.63
2023-05-10T03:04:55.160Z,2.63
2023-05-10T03:07:25.464Z,3.08
2023-05-10T03:09:57.777Z,3.25
2023-05-10T03:12:50.756Z,3.55
2023-05-10T03:16:00.051Z,2.75
2023-05-10T03:18:56.032Z,3.50
2023-05-10T03:21:33.255Z,3.78
2023-05-10T03:24:17.278Z,3.15
2023-05-10T03:26:49.503Z,3.40
2023-05-10T03:29:26.176Z,3.50
2023-05-10T03:31:53.514Z,3.90
2023-05-10T03:34:27.309Z,3.83
2023-05-10T03:36:55.778Z,3.85
2023-05-10T03:39:26.928Z,3.45
2023-05-10T03:42:04.683Z,3.70
2023-05-10T03:44:35.404Z,3.88
2023-05-10T03:47:10.137Z,5.57
2023-05-10T03:49:47.382Z,5.15
2023-05-10T03:52:27.406Z,4.60
2023-05-10T03:54:59.598Z,4.25
2023-05-10T03:57:35.389Z,3.78
2023-05-10T04:00:07.741Z,4.18
2023-05-10T04:03:02.368Z,4.05
2023-05-10T04:05:33.098Z,3.70
2023-05-10T04:08:04.219Z,3.67
2023-05-10T04:10:41.590Z,4.22
2023-05-10T04:13:20.834Z,3.75
2023-05-10T04:15:48.138Z,4.20
2023-05-10T04:18:16.221Z,4.40
2023-05-10T04:20:52.894Z,3.90
2023-05-10T04:23:22.622Z,3.90
2023-05-10T04:25:56.767Z,4.00
2023-05-10T04:28:27.197Z,3.90
2023-05-10T04:31:04.102Z,4.35
2023-05-10T04:33:34.179Z,4.00
2023-05-10T04:36:06.785Z,4.63
2023-05-10T04:38:36.712Z,4.65
2023-05-10T04:41:11.114Z,4.45
2023-05-10T04:43:41.544Z,3.90
2023-05-10T04:46:12.469Z,4.32
2023-05-10T04:48:49.502Z,4.47
2023-05-10T04:51:19.642Z,3.95
2023-05-10T04:54:05.451Z,3.97
2023-05-10T04:56:50.539Z,4.20
2023-05-10T04:59:21.073Z,4.90
2023-05-10T05:01:58.060Z,3.97
2023-05-10T05:04:29.234Z,4.50
2023-05-10T05:07:14.808Z,3.85
2023-05-10T05:09:48.618Z,4.18
2023-05-10T05:12:29.521Z,3.65
2023-05-10T05:15:03.605Z,5.00
2023-05-10T05:17:34.522Z,4.00
2023-05-10T05:20:06.194Z,5.47
2023-05-10T05:22:42.567Z,4.60
2023-05-10T05:25:12.254Z,4.63
2023-05-10T05:27:40.579Z,4.75
2023-05-10T05:30:16.720Z,4.55
2023-05-10T05:32:45.354Z,4.78
2023-05-10T05:35:21.564Z,4.53
2023-05-10T05:37:53.774Z,4.72
2023-05-10T05:40:26.064Z,4.60
2023-05-10T05:43:00.269Z,5.40
2023-05-10T05:45:29.592Z,3.78
2023-05-10T05:48:06.367Z,4.82
2023-05-10T05:50:38.538Z,5.07
2023-05-10T05:53:18.111Z,5.38
2023-05-10T05:56:00.125Z,4.60
2023-05-10T05:58:29.471Z,4.55
2023-05-10T06:00:58.702Z,4.32
2023-05-10T06:03:34.872Z,4.30
2023-05-10T06:06:07.822Z,4.82
2023-05-10T06:08:38.044Z,5.05
2023-05-10T06:11:13.401Z,4.47
2023-05-10T06:13:47.330Z,3.95
2023-05-10T06:16:27.844Z,3.08
2023-05-10T06:18:57.918Z,4.43
2023-05-10T06:21:27.156Z,4.13
2023-05-10T06:24:17.029Z,4.13
2023-05-10T06:26:53.102Z,4.07
2023-05-10T06:29:26.869Z,3.78
2023-05-10T06:31:57.915Z,3.92
2023-05-10T06:34:33.241Z,4.32
2023-05-10T06:37:08.796Z,4.90
2023-05-10T06:39:39.709Z,5.65
2023-05-10T06:42:09.289Z,4.30
2023-05-10T06:44:38.565Z,3.67
2023-05-10T06:47:13.605Z,4.15
2023-05-10T06:49:43.706Z,3.90
2023-05-10T06:52:15.832Z,3.88
2023-05-10T06:54:56.790Z,3.55
2023-05-10T06:57:32.046Z,4.07
2023-05-10T07:00:09.308Z,3.63
2023-05-10T07:02:42.311Z,3.47
2023-05-10T07:05:11.386Z,3.30
2023-05-10T07:07:38.894Z,3.45
2023-05-10T07:10:11.007Z,3.28
2023-05-10T07:12:44.397Z,3.35
2023-05-10T07:15:17.300Z,2.92
2023-05-10T07:17:48.531Z,2.80
2023-05-10T07:20:24.978Z,2.95
2023-05-10T07:22:57.609Z,2.63
2023-05-10T07:25:30.712Z,2.42
2023-05-10T07:28:06.106Z,3.17
2023-05-10T07:30:37.557Z,2.72
2023-05-10T07:33:14.713Z,2.97
2023-05-10T07:35:48.692Z,2.50
2023-05-10T07:38:31.061Z,2.58
2023-05-10T07:41:04.046Z,2.83
2023-05-10T07:46:12.486Z,2.75
2023-05-10T07:48:45.023Z,2.55
2023-05-10T07:51:29.770Z,2.97
2023-05-10T07:54:02.889Z,3.08
2023-05-10T07:56:37.803Z,3.15
2023-05-10T07:59:21.985Z,3.13
2023-05-10T08:02:00.298Z,2.88
2023-05-10T08:04:44.111Z,2.92
2023-05-10T08:07:13.170Z,2.75
2023-05-10T08:09:42.966Z,2.95
2023-05-10T08:12:12.372Z,2.80
2023-05-10T08:14:41.474Z,3.03
2023-05-10T08:17:13.170Z,2.85
2023-05-10T08:19:45.514Z,2.53
2023-05-10T08:22:24.191Z,2.60
2023-05-10T08:25:02.613Z,3.00
2023-05-10T08:27:35.250Z,2.90
2023-05-10T08:30:07.485Z,4.80
2023-05-10T08:32:44.054Z,3.63
2023-05-10T08:35:15.925Z,3.00
2023-05-10T08:37:46.684Z,3.80
2023-05-10T08:40:17.993Z,3.35
2023-05-10T08:43:13.332Z,3.00
2023-05-10T08:45:47.163Z,2.70
2023-05-10T08:48:30.039Z,2.33
2023-05-10T08:51:02.472Z,2.50
2023-05-10T08:53:33.684Z,2.97
2023-05-10T08:56:11.447Z,2.55
2023-05-10T08:58:52.858Z,2.70
2023-05-10T09:01:23.550Z,2.40
2023-05-10T09:03:53.719Z,2.63
2023-05-10T09:06:33.504Z,2.45
2023-05-10T09:09:16.249Z,2.38
2023-05-10T09:11:52.075Z,2.10
2023-05-10T09:14:25.676Z,3.25
2023-05-10T09:16:57.216Z,2.30
2023-05-10T09:19:33.687Z,2.13
2023-05-10T09:22:05.380Z,2.20
2023-05-10T09:24:41.369Z,2.70
2023-05-10T09:27:15.468Z,2.33
2023-05-10T09:29:52.464Z,2.10
2023-05-10T09:32:41.266Z,2.08
2023-05-10T09:35:17.162Z,2.30
2023-05-10T09:37:53.916Z,2.20
2023-05-10T09:40:25.426Z,2.28
2023-05-10T09:43:09.072Z,2.33
2023-05-10T09:45:48.617Z,2.25
2023-05-10T09:48:27.453Z,2.35
2023-05-10T09:51:06.988Z,1.92
2023-05-10T09:53:40.597Z,2.22
2023-05-10T09:56:21.239Z,1.70
2023-05-10T09:59:08.421Z,1.95
2023-05-10T10:01:42.170Z,5.55
2023-05-10T10:04:18.046Z,3.55
2023-05-10T10:06:52.728Z,2.20
2023-05-10T10:09:27.530Z,1.88
2023-05-10T10:12:09.931Z,2.20
2023-05-10T10:14:44.661Z,1.88
2023-05-10T10:17:20.645Z,2.03
2023-05-10T10:19:51.469Z,1.60
2023-05-10T10:22:24.822Z,2.40
2023-05-10T10:24:56.934Z,1.85
2023-05-10T10:27:34.230Z,1.70
2023-05-10T10:30:54.222Z,2.05
2023-05-10T10:33:47.530Z,2.03
2023-05-10T10:36:21.133Z,1.63
2023-05-10T10:39:02.876Z,2.10
2023-05-10T10:41:44.960Z,2.10
2023-05-10T10:44:37.482Z,2.08
2023-05-10T10:47:26.853Z,1.98
2023-05-10T10:50:08.166Z,1.73
2023-05-10T10:52:43.669Z,1.70
2023-05-10T10:55:25.958Z,1.60
2023-05-10T10:58:09.400Z,1.40
2023-05-10T11:00:45.612Z,2.13
2023-05-10T11:03:20.577Z,1.73
2023-05-10T11:06:00.608Z,1.45
2023-05-10T11:08:35.752Z,1.65
2023-05-10T11:11:11.219Z,2.10
2023-05-10T11:13:48.550Z,1.95
2023-05-10T11:16:30.435Z,1.70
2023-05-10T11:19:09.820Z,1.58
2023-05-10T11:21:50.404Z,3.25
2023-05-10T11:24:25.623Z,2.65
2023-05-10T11:26:56.751Z,1.52
2023-05-10T11:29:30.565Z,1.75
2023-05-10T11:32:13.934Z,2.00
2023-05-10T11:34:52.167Z,1.75
2023-05-10T11:37:22.589Z,1.95
2023-05-10T11:40:03.854Z,1.60
2023-05-10T11:42:34.475Z,1.60
2023-05-10T11:45:08.994Z,1.83
2023-05-10T11:47:39.633Z,1.60
2023-05-10T11:50:10.895Z,1.80
2023-05-10T11:52:46.926Z,1.75
2023-05-10T11:55:16.501Z,1.75
2023-05-10T11:57:51.037Z,2.03
2023-05-10T12:02:54.813Z,1.88
2023-05-10T12:05:33.966Z,1.95
2023-05-10T12:08:22.944Z,1.40
2023-05-10T12:10:53.759Z,2.38
2023-05-10T12:13:23.872Z,1.88
2023-05-10T12:15:54.510Z,1.75
2023-05-10T12:18:35.406Z,1.48
2023-05-10T12:21:06.964Z,1.60
2023-05-10T12:23:39.548Z,2.00
2023-05-10T12:26:14.104Z,1.50
2023-05-10T12:28:47.399Z,1.40
2023-05-10T12:31:21.074Z,1.65
2023-05-10T12:33:54.757Z,1.92
2023-05-10T12:36:41.444Z,1.70
2023-05-10T12:39:18.118Z,1.80
2023-05-10T12:41:47.714Z,1.58
2023-05-10T12:44:21.349Z,1.60
2023-05-10T12:46:56.212Z,1.73
2023-05-10T12:49:27.215Z,1.42
2023-05-10T12:52:06.157Z,1.60
2023-05-10T12:57:38.919Z,1.52
2023-05-10T13:00:13.548Z,2.25
2023-05-10T13:02:43.914Z,1.48
2023-05-10T13:05:14.673Z,1.40
2023-05-10T13:07:44.862Z,1.30
2023-05-10T13:10:19.906Z,1.20
2023-05-10T13:12:49.014Z,1.05
2023-05-10T13:15:23.401Z,0.98
2023-05-10T13:17:51.130Z,1.17
2023-05-10T13:20:21.831Z,0.88
2023-05-10T13:22:58.633Z,1.30
2023-05-10T13:25:36.523Z,1.33
2023-05-10T13:28:06.256Z,1.20
2023-05-10T13:30:37.827Z,1.05
2023-05-10T13:33:07.573Z,1.10
2023-05-10T13:35:40.440Z,1.00
2023-05-10T13:38:19.885Z,0.88
2023-05-10T13:40:59.266Z,1.13
2023-05-10T13:43:32.077Z,1.05
2023-05-10T13:46:02.454Z,1.40
2023-05-10T13:48:38.163Z,1.02
2023-05-10T13:51:07.954Z,1.40
2023-05-10T13:53:40.139Z,1.00
2023-05-10T13:56:20.586Z,1.23
2023-05-10T13:58:58.160Z,1.20
2023-05-10T14:01:34.716Z,1.23
2023-05-10T14:04:06.408Z,3.95
2023-05-10T14:06:44.392Z,4.05
2023-05-10T14:09:22.465Z,1.38
2023-05-10T14:11:55.827Z,1.20
2023-05-10T14:14:31.306Z,1.50
2023-05-10T14:17:05.834Z,1.52
2023-05-10T14:19:45.871Z,1.40
2023-05-10T14:22:34.988Z,1.52
2023-05-10T14:25:03.816Z,1.50
2023-05-10T14:27:33.994Z,1.00
2023-05-10T14:30:05.924Z,1.15
2023-05-10T14:32:35.368Z,1.30
2023-05-10T14:35:06.568Z,1.10
2023-05-10T14:37:35.683Z,1.00
2023-05-10T14:40:10.524Z,3.25
2023-05-10T14:42:49.382Z,4.88
2023-05-10T14:45:21.081Z,1.17
2023-05-10T14:47:51.703Z,1.70
2023-05-10T14:50:36.892Z,1.50
2023-05-10T14:53:11.331Z,1.70
2023-05-10T14:55:44.581Z,2.05
2023-05-10T14:58:21.757Z,4.45
2023-05-10T15:01:02.291Z,2.28
2023-05-10T15:03:32.842Z,3.80
2023-05-10T15:06:03.949Z,2.00
2023-05-10T15:08:38.054Z,1.52
2023-05-10T15:11:16.004Z,1.38
2023-05-10T15:13:51.171Z,1.40
2023-05-10T15:16:36.084Z,1.33
2023-05-10T15:19:04.788Z,1.20
2023-05-10T15:21:39.715Z,1.27
2023-05-10T15:24:14.619Z,1.10
2023-05-10T15:26:52.118Z,1.30
2023-05-10T15:29:27.971Z,4.43
2023-05-10T15:32:01.720Z,1.20
2023-05-10T15:34:31.948Z,1.33
2023-05-10T15:37:13.924Z,1.80
2023-05-10T15:39:57.506Z,1.10
2023-05-10T15:42:36.993Z,1.58
2023-05-10T15:45:08.496Z,2.13
2023-05-10T15:47:43.276Z,1.95
2023-05-10T15:50:13.616Z,2.00
2023-05-10T15:52:42.640Z,2.55
2023-05-10T15:55:16.632Z,4.05
2023-05-10T15:57:46.885Z,4.40
2023-05-10T16:00:23.365Z,2.00
2023-05-10T16:02:54.597Z,4.55
2023-05-10T16:05:25.321Z,3.50
2023-05-10T16:07:55.035Z,3.30
2023-05-10T16:10:24.136Z,2.00
2023-05-10T16:13:03.512Z,3.38
2023-05-10T16:15:35.355Z,3.60
2023-05-10T16:18:09.166Z,6.45
2023-05-10T16:20:39.886Z,3.58
2023-05-10T16:23:09.453Z,7.70
2023-05-10T16:25:40.336Z,3.60
2023-05-10T16:28:11.538Z,2.95
2023-05-10T16:30:47.484Z,5.50
2023-05-10T16:33:28.638Z,5.22
2023-05-10T16:36:05.397Z,8.10
2023-05-10T16:38:40.174Z,4.25
2023-05-10T16:41:13.461Z,2.42
2023-05-10T16:43:43.399Z,2.88
2023-05-10T16:46:21.725Z,2.65
2023-05-10T16:48:55.212Z,8.10
2023-05-10T16:51:25.149Z,3.95
2023-05-10T16:53:57.979Z,3.35
2023-05-10T16:56:39.586Z,2.50
2023-05-10T16:59:11.420Z,4.50
2023-05-10T17:01:41.836Z,2.58
2023-05-10T17:04:17.038Z,3.20
2023-05-10T17:06:53.362Z,3.85
2023-05-10T17:09:25.884Z,4.82
2023-05-10T17:11:55.257Z,3.95
2023-05-10T17:14:25.193Z,5.68
2023-05-10T17:17:04.529Z,4.43
2023-05-10T17:19:36.696Z,3.13
2023-05-10T17:22:08.339Z,6.70
2023-05-10T17:24:44.217Z,5.13
2023-05-10T17:27:23.953Z,4.10
2023-05-10T17:29:59.213Z,3.35
2023-05-10T17:32:30.289Z,2.70
2023-05-10T17:35:02.464Z,2.60
2023-05-10T17:37:42.163Z,3.15
2023-05-10T17:40:19.766Z,5.45
2023-05-10T17:42:53.373Z,4.20
2023-05-10T17:45:25.248Z,2.72
2023-05-10T17:47:58.989Z,3.00
2023-05-10T17:50:44.593Z,4.03
2023-05-10T17:53:16.245Z,2.40
2023-05-10T17:55:49.221Z,3.30
2023-05-10T17:58:22.211Z,4.80
2023-05-10T18:00:54.032Z,4.25
2023-05-10T18:03:25.656Z,3.67
2023-05-10T18:05:57.905Z,4.00
2023-05-10T18:08:38.334Z,3.83
2023-05-10T18:11:11.317Z,3.53
2023-05-10T18:13:46.214Z,5.10
2023-05-10T18:16:15.549Z,4.38
2023-05-10T18:18:50.420Z,8.43
2023-05-10T18:21:23.033Z,4.15
2023-05-10T18:23:53.233Z,4.82
2023-05-10T18:26:22.977Z,2.63
2023-05-10T18:28:53.521Z,4.60
2023-05-10T18:31:26.997Z,3.00
2023-05-10T18:33:58.521Z,2.92
2023-05-10T18:36:30.675Z,3.10
2023-05-10T18:39:06.389Z,7.07
2023-05-10T18:41:36.272Z,6.32
2023-05-10T18:44:07.135Z,3.40
2023-05-10T18:46:44.674Z,3.72
2023-05-10T18:49:20.373Z,3.83
2023-05-10T18:51:48.617Z,4.47
2023-05-10T18:54:18.409Z,4.78
2023-05-10T18:56:59.205Z,3.50
2023-05-10T18:59:32.592Z,3.40
2023-05-10T19:02:03.209Z,4.72
2023-05-10T19:04:39.797Z,3.95
2023-05-10T19:07:12.481Z,3.15
2023-05-10T19:09:49.110Z,6.03
2023-05-10T19:12:19.503Z,5.95
2023-05-10T19:14:49.569Z,4.90
2023-05-10T19:17:31.055Z,3.03
2023-05-10T19:20:04.023Z,2.35
2023-05-10T19:22:54.354Z,4.40
2023-05-10T19:25:30.380Z,3.38
2023-05-10T19:28:01.757Z,3.03
2023-05-10T19:30:33.294Z,4.72
2023-05-10T19:33:10.426Z,5.50
2023-05-10T19:35:39.869Z,4.88
2023-05-10T19:38:07.970Z,3.72
2023-05-10T19:40:47.516Z,6.75
2023-05-10T19:43:19.196Z,4.45
2023-05-10T19:46:02.520Z,6.68
2023-05-10T19:48:48.411Z,5.25
2023-05-10T19:51:19.042Z,3.78
2023-05-10T19:53:52.631Z,4.45
2023-05-10T19:56:22.390Z,6.00
2023-05-10T19:58:53.779Z,4.00
2023-05-10T20:01:24.219Z,4.00
2023-05-10T20:03:53.364Z,4.25
2023-05-10T20:06:31.705Z,5.30
2023-05-10T20:11:37.902Z,3.25
2023-05-10T20:14:07.609Z,4.32
2023-05-10T20:16:40.378Z,3.53
2023-05-10T20:19:08.600Z,3.70
2023-05-10T20:21:39.817Z,5.57
2023-05-10T20:24:22.546Z,5.68
2023-05-10T20:26:52.448Z,5.03
2023-05-10T20:29:23.212Z,3.15
2023-05-10T20:31:57.016Z,3.50
2023-05-10T20:34:28.492Z,6.20
2023-05-10T20:37:03.047Z,4.13
2023-05-10T20:39:37.502Z,3.10
2023-05-10T20:42:09.822Z,2.60
2023-05-10T20:44:40.339Z,4.05
2023-05-10T20:47:11.850Z,2.35
2023-05-10T20:49:54.076Z,3.60
2023-05-10T20:52:24.605Z,2.50
2023-05-10T20:54:55.240Z,2.25
2023-05-10T20:57:26.421Z,3.20
2023-05-10T21:00:00.863Z,3.80
2023-05-10T21:02:35.053Z,3.08
2023-05-10T21:05:24.903Z,2.97
2023-05-10T21:07:58.743Z,7.82
2023-05-10T21:10:29.164Z,3.78
2023-05-10T21:12:59.307Z,2.97
2023-05-10T21:15:29.613Z,2.47
2023-05-10T21:17:58.378Z,4.45
2023-05-10T21:20:40.390Z,3.53
2023-05-10T21:23:16.246Z,4.28
2023-05-10T21:25:50.955Z,3.90
2023-05-10T21:28:20.697Z,3.75
2023-05-10T21:30:58.826Z,4.07
2023-05-10T21:33:33.085Z,13.18
2023-05-10T21:36:04.753Z,10.05
2023-05-10T21:38:41.556Z,5.65
2023-05-10T21:41:12.510Z,5.22
2023-05-10T21:43:57.410Z,4.65
2023-05-10T21:46:26.433Z,4.65
2023-05-10T21:48:58.497Z,4.55
2023-05-10T21:51:30.487Z,4.78
2023-05-10T21:54:01.061Z,5.05
2023-05-10T21:56:29.010Z,3.85
2023-05-10T21:59:03.468Z,3.13
2023-05-10T22:01:35.077Z,2.90
2023-05-10T22:04:05.011Z,4.97
2023-05-10T22:06:35.096Z,5.10
2023-05-10T22:09:20.556Z,5.20
2023-05-10T22:11:55.499Z,2.17
2023-05-10T22:14:23.972Z,3.83
2023-05-10T22:16:56.356Z,3.40
2023-05-10T22:19:27.130Z,3.28
2023-05-10T22:21:58.944Z,2.90
2023-05-10T22:24:37.679Z,3.03
2023-05-10T22:27:20.073Z,3.63
2023-05-10T22:29:50.821Z,5.30
2023-05-10T22:32:29.268Z,4.25
2023-05-10T22:35:01.559Z,2.90
2023-05-10T22:37:33.823Z,2.97
2023-05-10T22:40:03.321Z,7.35
2023-05-10T22:42:33.203Z,9.15
2023-05-10T22:45:01.250Z,3.90
2023-05-10T22:47:31.212Z,4.05
2023-05-10T22:50:04.287Z,2.60
2023-05-10T22:52:33.717Z,5.22
2023-05-10T22:55:04.897Z,3.33
2023-05-10T22:57:37.235Z,2.95
2023-05-10T23:00:06.283Z,4.20
2023-05-10T23:02:39.863Z,8.27
2023-05-10T23:05:31.160Z,3.90
2023-05-10T23:08:05.881Z,3.53
2023-05-10T23:10:40.805Z,3.38
2023-05-10T23:13:24.582Z,2.40
2023-05-10T23:15:57.940Z,2.90
2023-05-10T23:18:28.474Z,3.65
2023-05-10T23:21:09.777Z,4.90
2023-05-10T23:23:52.769Z,3.95
2023-05-10T23:26:25.200Z,3.25
2023-05-10T23:31:30.525Z,4.97
2023-05-10T23:34:09.101Z,3.42
2023-05-10T23:36:43.332Z,3.30
2023-05-10T23:39:18.818Z,3.67
2023-05-10T23:41:54.900Z,4.22
2023-05-10T23:44:29.607Z,2.80
2023-05-10T23:47:01.268Z,3.17
2023-05-10T23:49:30.864Z,3.45
2023-05-10T23:52:00.792Z,4.13
2023-05-10T23:54:33.641Z,4.07
2023-05-10T23:57:11.329Z,8.02
2023-05-10T23:59:42.249Z,5.03
